首页
METAR-TAF:

METAR-TAF

机场 :

內排國際機場

河內, 越南

纬度: 21-01N, 经度: 105-48E, 海拔: 6米

当前天气观测

该预报发布于25分钟前的08:30 UTC
风速7节,风向
温度 25°C
湿度 83%
气压 1007 hPa
能见度10公里或以上
少量云层高于800英尺
散云层高于1100英尺
多云层高于3400英尺
小雨

METAR: VVNB 190830Z 36007KT 9999 -RA FEW008 SCT011 BKN034 25/22 Q1007 NOSIG

时间: 15:55 (08:55 UTC)

预报

该预报发布于3小时和55分钟前的05:00 UTC
预报有效从19日的 06点(UTC)到 20日的 06点(UTC)
风速12节,风向北转东北
能见度10公里或以上
散云层高于1500英尺
多云层高于4000英尺
短暂存在
从 19日的 06点(UTC)到 19日的 12点(UTC)
能見度: 4000
散云层高于1000英尺
少量云层高于2700英尺, 积雨云.
多云层高于4000英尺
雷暴, 雨

TAF: VVNB 190500Z 1906/2006 02012KT 9999 SCT015 BKN040 TEMPO 1906/1912 4000 TSRA SCT010 FEW027CB BKN040

超过4000个机场的气象观测和天气预报(METAR&TAF报告)。

可查询的气象台以黄色和红色小点在地图上表示。

将鼠标移到小点上方,可查看气象台名称。

然后点击查看天气观测和预报。

如需切换地图:点击带黑十字的绿色按钮放大地图;点击带横线的绿色按钮缩小地图;或者点击绿色箭头查看邻近地区的地图。


METAR-TAF: